Orwell — V7KG8 — position and weather

sailwx.info

Track history (hours):
 
Tides and Currents Weather Stations Pressure Air Temp Water Temp Dewpoint Dewpoint Depression Visibility Wind Speed Wind Dir Waves Ship Positions

Orwell

Last reported at 2017-Dec-26 05:29 UTC. Time now 2018-Jan-20 05:37 UTC.
Position N 27°01' W 091°38'.
Warning: this ship's position is 25 days out of date.

Length 183 m; draft 11 m.

Type: Tanker. MMSI: 538006161.

Date/timePositionNaut miles runAvg speedWind from/ knotsBaromVisibWave heightAir tempDewpointWater temp
2017-Dec-26 05:29N 27°01' W 091°38'712.9
2017-Dec-26 04:57N 27°06' W 091°43'613.0
2017-Dec-26 04:29N 27°11' W 091°48'713.2
2017-Dec-26 03:58N 27°15' W 091°53'613.1
2017-Dec-26 03:30N 27°20' W 091°58'19612.0
2017-Dec-25 11:13N 29°25' W 094°49'410.5
2017-Dec-25 10:51N 29°28' W 094°51'410.7
2017-Dec-25 10:31N 29°31' W 094°53'510.6
2017-Dec-25 10:01N 29°36' W 094°57'510.1
2017-Dec-25 09:31N 29°41' W 094°59'4 7.6
2017-Dec-25 09:00N 29°44' W 095°01'4 7.2
2017-Dec-25 08:30N 29°46' W 095°05'3 5.7
2017-Dec-25 08:00N 29°44' W 095°07'3 5.5
2017-Dec-25 07:30N 29°45' W 095°10'2 4.9
2017-Dec-25 07:00N 29°43' W 095°13'0 0.5
2017-Dec-25 06:31N 29°44' W 095°13'  
2017-Dec-22 04:52N 29°44' W 095°13'1 2.9
2017-Dec-22 04:30N 29°43' W 095°14'2 3.6
2017-Dec-22 04:00N 29°44' W 095°12'2 5.0
2017-Dec-22 03:30N 29°45' W 095°10'3 5.3
2017-Dec-22 03:00N 29°44' W 095°07'3 5.5
2017-Dec-22 02:30N 29°44' W 095°04'4 7.5
2017-Dec-22 02:00N 29°42' W 095°00'5 9.8
2017-Dec-22 01:30N 29°38' W 094°58'612.2
2017-Dec-22 01:00N 29°32' W 094°54'713.4
2017-Dec-22 00:30N 29°27' W 094°50'19 1.1
2017-Dec-21 07:54N 29°19' W 094°31'0 0.0
2017-Dec-21 07:21N 29°19' W 094°31'0 0.0
2017-Dec-21 05:51N 29°19' W 094°31'0 0.0
2017-Dec-20 15:54N 29°19' W 094°31'0 0.1
2017-Dec-20 15:27N 29°19' W 094°31'0 0.1
2017-Dec-20 15:00N 29°19' W 094°31'0 0.1
2017-Dec-20 14:30N 29°19' W 094°31'0 0.0
2017-Dec-20 13:54N 29°19' W 094°31'0 0.1
2017-Dec-20 13:30N 29°19' W 094°31'  
Track history (hours):
 
Tides and Currents Weather Stations Pressure Air Temp Water Temp Dewpoint Dewpoint Depression Visibility Wind Speed Wind Dir Waves Ship Positions

Orwell

Last reported at 2017-Dec-26 05:29 UTC. Time now 2018-Jan-20 05:37 UTC.
Position N 27°01' W 091°38'.
Warning: this ship's position is 25 days out of date.

Length 183 m; draft 11 m.

Type: Tanker. MMSI: 538006161.

Date/timePositionNaut miles runAvg speedWind from/ knotsBaromVisibWave heightAir tempDewpointWater temp
2017-Dec-26 05:29N 27°01' W 091°38'712.9
2017-Dec-26 04:57N 27°06' W 091°43'613.0
2017-Dec-26 04:29N 27°11' W 091°48'713.2
2017-Dec-26 03:58N 27°15' W 091°53'613.1
2017-Dec-26 03:30N 27°20' W 091°58'19612.0
2017-Dec-25 11:13N 29°25' W 094°49'410.5
2017-Dec-25 10:51N 29°28' W 094°51'410.7
2017-Dec-25 10:31N 29°31' W 094°53'510.6
2017-Dec-25 10:01N 29°36' W 094°57'510.1
2017-Dec-25 09:31N 29°41' W 094°59'4 7.6
2017-Dec-25 09:00N 29°44' W 095°01'4 7.2
2017-Dec-25 08:30N 29°46' W 095°05'3 5.7
2017-Dec-25 08:00N 29°44' W 095°07'3 5.5
2017-Dec-25 07:30N 29°45' W 095°10'2 4.9
2017-Dec-25 07:00N 29°43' W 095°13'0 0.5
2017-Dec-25 06:31N 29°44' W 095°13'  
2017-Dec-22 04:52N 29°44' W 095°13'1 2.9
2017-Dec-22 04:30N 29°43' W 095°14'2 3.6
2017-Dec-22 04:00N 29°44' W 095°12'2 5.0
2017-Dec-22 03:30N 29°45' W 095°10'3 5.3
2017-Dec-22 03:00N 29°44' W 095°07'3 5.5
2017-Dec-22 02:30N 29°44' W 095°04'4 7.5
2017-Dec-22 02:00N 29°42' W 095°00'5 9.8
2017-Dec-22 01:30N 29°38' W 094°58'612.2
2017-Dec-22 01:00N 29°32' W 094°54'713.4
2017-Dec-22 00:30N 29°27' W 094°50'19 1.1
2017-Dec-21 07:54N 29°19' W 094°31'0 0.0
2017-Dec-21 07:21N 29°19' W 094°31'0 0.0
2017-Dec-21 05:51N 29°19' W 094°31'0 0.0
2017-Dec-20 15:54N 29°19' W 094°31'0 0.1
2017-Dec-20 15:27N 29°19' W 094°31'0 0.1
2017-Dec-20 15:00N 29°19' W 094°31'0 0.1
2017-Dec-20 14:30N 29°19' W 094°31'0 0.0
2017-Dec-20 13:54N 29°19' W 094°31'0 0.1
2017-Dec-20 13:30N 29°19' W 094°31'  

Dump ship's entire track history